Time;durP1;ratioP1;P1;durP2;ratioP2;P2;SDS_P1;SDS_P2;PMS_P1;PMS_P2;Temp;Humidity;BMP_temperature;BMP_pressure;BME280_temperature;BME280_humidity;BME280_pressure;Samples;Min_cycle;Max_cycle;Signal;HPM_P1;HPM_P2
2023/12/28 00:02:18;;;;;;;15.80;14.40;;;9.60;99.90;;;;;;5059928;28;20270;-60
2023/12/28 00:04:45;;;;;;;14.90;14.00;;;9.70;99.90;;;;;;5080834;28;20190;-60
2023/12/28 00:07:13;;;;;;;14.80;13.90;;;9.60;99.90;;;;;;5087950;28;20279;-59
2023/12/28 00:09:40;;;;;;;15.03;14.03;;;9.60;99.90;;;;;;5083163;28;20178;-58
2023/12/28 00:12:07;;;;;;;14.53;13.70;;;9.80;99.90;;;;;;5056874;28;20703;-59
2023/12/28 00:14:34;;;;;;;14.90;13.87;;;9.80;99.90;;;;;;5041932;28;20194;-61
2023/12/28 00:17:01;;;;;;;13.90;13.10;;;9.70;99.90;;;;;;5052816;28;20198;-59
2023/12/28 00:19:28;;;;;;;14.70;13.53;;;10.00;99.90;;;;;;5088599;28;20216;-62
2023/12/28 00:21:55;;;;;;;14.73;13.83;;;10.00;99.90;;;;;;5082888;28;20281;-59
2023/12/28 00:24:22;;;;;;;14.80;13.90;;;10.00;99.90;;;;;;5088243;28;20658;-59
2023/12/28 00:26:50;;;;;;;15.13;13.97;;;9.80;99.90;;;;;;5088132;28;20972;-60
2023/12/28 00:29:17;;;;;;;14.40;13.60;;;9.70;99.90;;;;;;5073681;28;20203;-58
2023/12/28 00:31:44;;;;;;;15.13;14.03;;;9.80;99.90;;;;;;5058014;28;20774;-60
2023/12/28 00:34:11;;;;;;;16.17;14.97;;;9.70;99.90;;;;;;5072231;28;20270;-60
2023/12/28 00:36:38;;;;;;;15.30;14.40;;;9.80;99.90;;;;;;5091359;28;20197;-61
2023/12/28 00:39:05;;;;;;;15.97;14.87;;;9.70;99.90;;;;;;5096214;28;20320;-61
2023/12/28 00:41:33;;;;;;;16.60;15.40;;;10.10;99.90;;;;;;5072248;28;20210;-70
2023/12/28 00:44:01;;;;;;;15.63;14.63;;;9.70;99.90;;;;;;5082718;28;20183;-59
2023/12/28 00:46:28;;;;;;;14.67;13.77;;;9.40;99.90;;;;;;5088741;28;20186;-59
2023/12/28 00:48:55;;;;;;;16.87;15.57;;;9.30;99.90;;;;;;5087371;28;20194;-59
2023/12/28 00:51:22;;;;;;;16.17;15.07;;;9.20;99.90;;;;;;5087274;28;20194;-59
2023/12/28 00:53:49;;;;;;;15.10;14.10;;;9.20;99.90;;;;;;5066176;28;20203;-59
2023/12/28 00:56:16;;;;;;;13.97;13.17;;;9.20;99.90;;;;;;5060344;28;20206;-60
2023/12/28 00:58:43;;;;;;;15.17;14.17;;;9.20;99.90;;;;;;5072159;28;20221;-60
2023/12/28 01:01:11;;;;;;;13.70;12.90;;;9.20;99.90;;;;;;5091256;28;20698;-60
2023/12/28 01:03:39;;;;;;;14.30;13.40;;;9.10;99.90;;;;;;5079376;28;20190;-59
2023/12/28 01:06:07;;;;;;;13.37;12.57;;;9.00;99.90;;;;;;5060160;28;20728;-60
2023/12/28 01:08:34;;;;;;;13.43;12.53;;;9.00;99.90;;;;;;5065073;28;20298;-60
2023/12/28 01:11:04;;;;;;;13.17;12.37;;;8.90;99.90;;;;;;5071466;28;20324;-60
2023/12/28 01:13:31;;;;;;;13.60;12.80;;;8.90;99.90;;;;;;5071435;28;20601;-60
2023/12/28 01:15:58;;;;;;;13.43;12.60;;;8.90;99.90;;;;;;5084769;28;20220;-59
2023/12/28 01:18:25;;;;;;;13.70;12.80;;;8.90;99.90;;;;;;5072694;28;20226;-60
2023/12/28 01:20:53;;;;;;;14.17;13.27;;;8.90;99.90;;;;;;5086263;28;20537;-59
2023/12/28 01:23:20;;;;;;;14.20;13.30;;;8.80;99.90;;;;;;5090795;28;20190;-67
2023/12/28 01:25:47;;;;;;;13.00;12.23;;;8.90;99.90;;;;;;5072053;28;20202;-60
2023/12/28 01:28:14;;;;;;;13.37;12.57;;;8.90;99.90;;;;;;5088124;28;20290;-59
2023/12/28 01:30:41;;;;;;;12.80;12.10;;;9.00;99.90;;;;;;5072583;28;20224;-60
2023/12/28 01:33:08;;;;;;;13.00;12.20;;;9.00;99.90;;;;;;5061619;28;20644;-60
2023/12/28 01:35:36;;;;;;;12.90;12.20;;;9.00;99.90;;;;;;5066189;28;20294;-60
2023/12/28 01:38:03;;;;;;;13.30;12.40;;;9.00;99.90;;;;;;5097652;28;20245;-60
2023/12/28 01:40:31;;;;;;;12.77;12.07;;;9.00;99.90;;;;;;5090020;28;20194;-60
2023/12/28 01:42:58;;;;;;;14.27;12.73;;;9.00;99.90;;;;;;5083765;28;20187;-60
2023/12/28 01:45:25;;;;;;;13.07;12.27;;;8.90;99.90;;;;;;5063305;28;20201;-59
2023/12/28 01:47:58;;;;;;;12.80;12.00;;;8.90;99.90;;;;;;5085668;28;20666;-59
2023/12/28 01:50:27;;;;;;;12.73;12.03;;;8.90;99.90;;;;;;5071605;28;20194;-61
2023/12/28 01:52:56;;;;;;;12.67;11.90;;;8.90;99.90;;;;;;5075370;28;20190;-59
2023/12/28 01:55:25;;;;;;;13.23;12.40;;;8.90;99.90;;;;;;5081201;28;20179;-60
2023/12/28 01:57:52;;;;;;;12.30;11.60;;;8.80;99.90;;;;;;5071572;28;20198;-60
2023/12/28 02:00:24;;;;;;;13.30;12.20;;;8.70;99.90;;;;;;5070609;28;20197;-60
2023/12/28 02:02:52;;;;;;;12.87;12.10;;;8.80;99.90;;;;;;5063133;28;20194;-61
2023/12/28 02:05:19;;;;;;;12.27;11.53;;;8.80;99.90;;;;;;5071480;28;20615;-63
2023/12/28 02:07:46;;;;;;;12.47;11.77;;;8.80;99.90;;;;;;5090310;28;20208;-61
2023/12/28 02:10:15;;;;;;;12.60;11.90;;;8.70;99.90;;;;;;5084927;28;20273;-61
2023/12/28 02:12:42;;;;;;;12.97;12.17;;;8.70;99.90;;;;;;5088212;28;20233;-61
2023/12/28 02:15:10;;;;;;;12.63;11.93;;;8.80;99.90;;;;;;5083648;28;20455;-61
2023/12/28 02:17:48;;;;;;;13.57;12.30;;;8.90;99.90;;;;;;5088639;28;20214;-61
2023/12/28 02:20:16;;;;;;;12.33;11.63;;;8.90;99.90;;;;;;5054411;28;20194;-61
2023/12/28 02:22:43;;;;;;;12.67;11.67;;;8.90;99.90;;;;;;5071953;28;20213;-61
2023/12/28 02:25:11;;;;;;;12.67;11.77;;;9.00;99.90;;;;;;5071446;28;20197;-60
2023/12/28 02:27:39;;;;;;;12.17;11.57;;;9.20;99.90;;;;;;5088828;28;20210;-61
2023/12/28 02:30:07;;;;;;;12.93;11.97;;;9.20;99.90;;;;;;5063302;28;20201;-61
2023/12/28 02:32:48;;;;;;;12.73;12.03;;;9.30;99.90;;;;;;5065243;28;20206;-61
2023/12/28 02:35:40;;;;;;;12.90;12.10;;;9.30;99.90;;;;;;5082510;28;20201;-62
2023/12/28 02:38:13;;;;;;;12.70;12.00;;;9.30;99.90;;;;;;5068976;28;20686;-61
2023/12/28 02:40:44;;;;;;;13.10;12.13;;;9.30;99.90;;;;;;5070213;28;20204;-62
2023/12/28 02:43:12;;;;;;;12.63;11.93;;;9.30;99.90;;;;;;5086627;28;20218;-61
2023/12/28 02:45:40;;;;;;;13.20;12.43;;;9.20;99.90;;;;;;5069836;28;20194;-61
2023/12/28 02:48:08;;;;;;;12.60;11.90;;;9.30;99.90;;;;;;5068403;28;20197;-61
2023/12/28 02:50:35;;;;;;;13.03;12.30;;;9.30;99.90;;;;;;5087519;28;20194;-61
2023/12/28 02:53:03;;;;;;;13.30;12.50;;;9.40;99.90;;;;;;5086651;28;20182;-61
2023/12/28 02:55:30;;;;;;;12.67;11.97;;;9.30;99.90;;;;;;5069433;28;20194;-61
2023/12/28 02:58:01;;;;;;;12.67;11.87;;;9.20;99.90;;;;;;5069144;28;20204;-61
2023/12/28 03:04:29;;;;;;;12.87;12.10;;;9.20;99.90;;;;;;5077755;28;20257;-61
2023/12/28 03:06:56;;;;;;;13.00;12.20;;;9.20;99.90;;;;;;5078206;28;20201;-61
2023/12/28 03:09:23;;;;;;;12.50;11.80;;;9.20;99.90;;;;;;5085817;28;20608;-61
2023/12/28 03:11:50;;;;;;;13.10;12.40;;;9.20;99.90;;;;;;5058550;28;20334;-61
2023/12/28 03:14:17;;;;;;;12.77;12.07;;;9.30;99.90;;;;;;5054062;28;20212;-61
2023/12/28 03:16:47;;;;;;;13.30;11.97;;;9.30;99.90;;;;;;5049256;28;20557;-65
2023/12/28 03:19:14;;;;;;;14.10;13.10;;;9.40;99.90;;;;;;5043091;28;20211;-61
2023/12/28 03:21:42;;;;;;;13.13;12.20;;;9.40;99.90;;;;;;5052833;28;20187;-60
2023/12/28 03:24:09;;;;;;;12.97;12.13;;;9.40;99.90;;;;;;5046878;28;20200;-60
2023/12/28 03:26:41;;;;;;;13.00;12.20;;;9.30;99.90;;;;;;5050317;28;20286;-60
2023/12/28 03:29:09;;;;;;;13.70;12.80;;;9.30;99.90;;;;;;5052755;28;20253;-60
2023/12/28 03:31:39;;;;;;;14.00;13.03;;;9.30;99.90;;;;;;5049002;28;20187;-68
2023/12/28 03:34:07;;;;;;;13.43;12.50;;;9.30;99.90;;;;;;5042267;28;20207;-64
2023/12/28 03:36:37;;;;;;;13.27;12.50;;;9.30;99.90;;;;;;5041638;28;20185;-60
2023/12/28 03:39:05;;;;;;;12.80;12.10;;;9.30;99.90;;;;;;5049836;28;20341;-60
2023/12/28 03:41:33;;;;;;;12.67;11.97;;;9.30;99.90;;;;;;5056135;28;20199;-60
2023/12/28 03:44:00;;;;;;;13.33;12.47;;;9.30;99.90;;;;;;5044534;28;20341;-59
2023/12/28 03:46:27;;;;;;;12.70;12.00;;;9.30;99.90;;;;;;5045861;28;20203;-59
2023/12/28 03:48:54;;;;;;;13.53;12.53;;;9.20;99.90;;;;;;5049703;28;20261;-64
2023/12/28 03:51:21;;;;;;;13.13;12.33;;;9.20;99.90;;;;;;5054707;28;20210;-60
2023/12/28 03:53:48;;;;;;;13.20;12.40;;;9.30;99.90;;;;;;5055055;28;20191;-60
2023/12/28 03:56:23;;;;;;;18.87;17.17;;;9.20;99.90;;;;;;5047464;28;20734;-60
2023/12/28 03:58:53;;;;;;;13.07;12.27;;;9.30;99.90;;;;;;5055028;28;20668;-60
2023/12/28 04:01:21;;;;;;;13.73;12.90;;;9.30;99.90;;;;;;5032680;28;20236;-59
2023/12/28 04:03:49;;;;;;;13.83;12.93;;;9.20;99.90;;;;;;5032962;28;20192;-59
2023/12/28 04:06:17;;;;;;;13.83;12.93;;;9.20;99.90;;;;;;5045791;28;20199;-59
2023/12/28 04:08:44;;;;;;;13.03;12.10;;;9.20;99.90;;;;;;5062037;28;20910;-59
2023/12/28 04:11:14;;;;;;;14.77;13.53;;;9.40;99.90;;;;;;5040345;28;20243;-59
2023/12/28 04:13:41;;;;;;;13.50;12.50;;;9.40;99.90;;;;;;5047158;28;20201;-59
2023/12/28 04:16:09;;;;;;;14.77;13.23;;;9.40;99.90;;;;;;5050191;28;20196;-59
2023/12/28 04:18:37;;;;;;;14.30;13.30;;;9.40;99.90;;;;;;5045163;28;20299;-73
2023/12/28 04:21:11;;;;;;;14.97;13.80;;;9.50;99.90;;;;;;5047648;28;20224;-62
2023/12/28 04:23:40;;;;;;;13.27;12.30;;;9.50;99.90;;;;;;5050274;28;23055;-58
2023/12/28 04:26:07;;;;;;;12.17;11.53;;;9.50;99.90;;;;;;5042897;28;20249;-58
2023/12/28 04:28:35;;;;;;;12.57;11.77;;;9.40;99.90;;;;;;5031079;28;20212;-61
2023/12/28 04:31:06;;;;;;;12.33;11.53;;;9.30;99.90;;;;;;5029440;28;20192;-58
2023/12/28 04:33:33;;;;;;;12.30;11.37;;;9.30;99.90;;;;;;5049808;28;20192;-58
2023/12/28 04:36:05;;;;;;;11.93;11.23;;;9.30;99.90;;;;;;5043348;28;20215;-59
2023/12/28 04:38:33;;;;;;;11.70;11.00;;;9.30;99.90;;;;;;5066623;28;20188;-58
2023/12/28 04:41:01;;;;;;;11.60;10.90;;;9.40;99.90;;;;;;5043143;28;20357;-58
2023/12/28 04:43:28;;;;;;;11.97;11.27;;;9.40;99.90;;;;;;5049176;28;20651;-58
2023/12/28 04:45:55;;;;;;;13.50;12.53;;;9.30;99.90;;;;;;5042674;28;20208;-59
2023/12/28 04:48:23;;;;;;;12.13;11.47;;;9.30;99.90;;;;;;5044153;28;20238;-59
2023/12/28 04:50:52;;;;;;;12.27;11.43;;;9.30;99.90;;;;;;5050712;28;20781;-59
2023/12/28 04:53:20;;;;;;;12.47;11.67;;;9.40;99.90;;;;;;5048846;28;20207;-59
2023/12/28 04:55:47;;;;;;;12.63;11.83;;;9.30;99.90;;;;;;5042712;28;20758;-59
2023/12/28 04:58:14;;;;;;;14.50;13.17;;;9.30;99.90;;;;;;5049264;28;20639;-61
2023/12/28 05:00:41;;;;;;;13.27;12.37;;;9.30;99.90;;;;;;5048779;28;20214;-66
2023/12/28 05:03:09;;;;;;;13.37;12.60;;;9.30;99.90;;;;;;5043952;28;20195;-60
2023/12/28 05:05:36;;;;;;;12.90;12.10;;;9.30;99.90;;;;;;5033297;28;20502;-60
2023/12/28 05:08:04;;;;;;;13.20;12.30;;;9.40;99.90;;;;;;5036371;28;20269;-63
2023/12/28 05:10:31;;;;;;;12.63;11.90;;;9.50;99.90;;;;;;5032970;28;20538;-60
2023/12/28 05:12:58;;;;;;;13.07;12.27;;;9.60;99.90;;;;;;5049205;28;20235;-61
2023/12/28 05:15:28;;;;;;;12.17;11.47;;;9.60;99.90;;;;;;5050606;28;20200;-58
2023/12/28 05:17:56;;;;;;;12.50;11.80;;;9.60;99.90;;;;;;5050522;28;20222;-59
2023/12/28 05:20:24;;;;;;;12.80;12.10;;;9.60;99.90;;;;;;5040528;28;20593;-59
2023/12/28 05:22:51;;;;;;;12.40;11.73;;;9.50;99.90;;;;;;5043852;28;20207;-59
2023/12/28 05:25:18;;;;;;;12.37;11.47;;;9.60;99.90;;;;;;5048329;28;20198;-59
2023/12/28 05:27:45;;;;;;;13.63;12.63;;;9.60;99.90;;;;;;5040992;28;20224;-59
2023/12/28 05:30:12;;;;;;;12.73;12.00;;;9.60;99.90;;;;;;5026084;28;20231;-59
2023/12/28 05:32:39;;;;;;;12.70;12.00;;;9.70;99.90;;;;;;5043011;28;20433;-61
2023/12/28 05:35:07;;;;;;;12.90;12.10;;;9.70;99.90;;;;;;5049481;28;20188;-62
2023/12/28 05:37:34;;;;;;;12.87;12.07;;;9.60;99.90;;;;;;5053832;28;20245;-61
2023/12/28 05:40:02;;;;;;;13.10;12.30;;;9.50;99.90;;;;;;5032734;28;20203;-61
2023/12/28 05:42:29;;;;;;;13.00;12.00;;;9.60;99.90;;;;;;5029325;28;20687;-59
2023/12/28 05:44:56;;;;;;;12.80;12.00;;;9.60;99.90;;;;;;5044991;28;20655;-62
2023/12/28 05:47:23;;;;;;;13.10;12.20;;;9.60;99.90;;;;;;5047974;28;20622;-59
2023/12/28 05:49:51;;;;;;;13.27;12.40;;;9.60;99.90;;;;;;5054473;28;20265;-59
2023/12/28 05:52:19;;;;;;;12.73;11.83;;;9.60;99.90;;;;;;5047341;28;20203;-60
2023/12/28 05:54:47;;;;;;;12.43;11.70;;;9.70;99.90;;;;;;5041154;28;20195;-60
2023/12/28 05:57:15;;;;;;;12.27;11.57;;;9.60;99.90;;;;;;5049893;28;20210;-60
2023/12/28 05:59:42;;;;;;;12.60;11.90;;;9.60;99.90;;;;;;5047722;28;20710;-60
2023/12/28 06:02:09;;;;;;;12.53;11.83;;;9.60;99.90;;;;;;5046663;28;20222;-60
2023/12/28 06:04:37;;;;;;;13.20;12.20;;;9.60;99.90;;;;;;5047320;28;20198;-59
2023/12/28 06:07:04;;;;;;;13.40;12.60;;;9.60;99.90;;;;;;5044692;28;20625;-60
2023/12/28 06:09:32;;;;;;;13.60;12.50;;;9.60;99.90;;;;;;5038579;28;20757;-59
2023/12/28 06:12:00;;;;;;;14.27;12.90;;;9.80;99.90;;;;;;5024851;28;20293;-60
2023/12/28 06:14:27;;;;;;;13.00;12.30;;;9.80;99.90;;;;;;5047460;28;20207;-59
2023/12/28 06:16:54;;;;;;;12.90;12.10;;;9.80;99.90;;;;;;5045844;28;20246;-60
2023/12/28 06:19:24;;;;;;;12.97;12.13;;;9.80;99.90;;;;;;5048978;28;20230;-58
2023/12/28 06:21:53;;;;;;;13.40;12.40;;;9.90;99.90;;;;;;5041278;28;20204;-59
2023/12/28 06:24:21;;;;;;;13.00;12.30;;;9.80;99.90;;;;;;5049143;28;20188;-58
2023/12/28 06:26:48;;;;;;;13.20;12.50;;;9.80;99.90;;;;;;5047431;28;20268;-59
2023/12/28 06:29:15;;;;;;;12.63;11.93;;;9.80;99.90;;;;;;5035360;28;20275;-58
2023/12/28 06:31:42;;;;;;;12.80;12.10;;;9.80;99.90;;;;;;5046260;28;20583;-58
2023/12/28 06:34:10;;;;;;;12.40;11.60;;;9.90;99.90;;;;;;5047771;28;20210;-60
2023/12/28 06:36:37;;;;;;;12.83;12.13;;;9.80;99.90;;;;;;5037031;28;20199;-59
2023/12/28 06:39:04;;;;;;;13.40;12.40;;;9.80;99.90;;;;;;5048683;28;20203;-59
2023/12/28 06:41:31;;;;;;;12.77;12.00;;;9.80;99.90;;;;;;5043566;28;20489;-61
2023/12/28 06:43:58;;;;;;;13.60;12.80;;;9.80;99.90;;;;;;5022971;28;20222;-59
2023/12/28 06:46:25;;;;;;;13.50;12.70;;;9.80;99.90;;;;;;5034529;28;20313;-59
2023/12/28 06:48:52;;;;;;;13.07;12.37;;;9.80;99.90;;;;;;5047167;28;20203;-60
2023/12/28 06:51:20;;;;;;;13.40;12.20;;;9.80;99.90;;;;;;5045850;28;20216;-60
2023/12/28 06:53:48;;;;;;;13.20;12.50;;;9.80;99.90;;;;;;5035631;28;20261;-60
2023/12/28 06:56:16;;;;;;;13.47;12.60;;;9.80;99.90;;;;;;5047333;28;20265;-60
2023/12/28 06:58:43;;;;;;;13.43;12.40;;;9.80;99.90;;;;;;5044327;28;20188;-66
2023/12/28 07:01:11;;;;;;;13.33;12.53;;;9.80;99.90;;;;;;5035287;28;20354;-60
2023/12/28 07:11:13;;;;;;;13.20;12.30;;;9.70;99.90;;;;;;5036343;28;20215;-87
2023/12/28 07:14:17;;;;;;;13.27;12.37;;;9.80;99.90;;;;;;5001732;28;20639;-84
2023/12/28 07:21:46;;;;;;;12.83;12.10;;;9.60;99.90;;;;;;5019855;28;20326;-86
2023/12/28 07:25:21;;;;;;;12.97;12.17;;;9.40;99.90;;;;;;5023984;28;20192;-87
2023/12/28 07:28:48;;;;;;;12.70;11.97;;;9.50;99.90;;;;;;4873986;29;20194;-86
2023/12/28 07:39:03;;;;;;;12.90;12.10;;;9.40;99.90;;;;;;4916011;28;20211;-88
2023/12/28 07:42:15;;;;;;;12.73;12.03;;;9.40;99.90;;;;;;4904506;29;20210;-87
2023/12/28 07:45:33;;;;;;;12.90;12.00;;;9.60;99.90;;;;;;4931338;29;20654;-88
2023/12/28 07:48:42;;;;;;;13.40;12.07;;;9.60;99.90;;;;;;4906821;29;20664;-87
2023/12/28 07:51:27;;;;;;;13.23;12.33;;;9.50;99.90;;;;;;4884531;29;20204;-87
2023/12/28 07:54:12;;;;;;;12.97;12.20;;;9.40;99.90;;;;;;4923726;29;20211;-87
2023/12/28 07:58:06;;;;;;;13.53;12.63;;;9.40;99.90;;;;;;4923730;29;20211;-88
2023/12/28 08:01:32;;;;;;;13.60;12.70;;;9.60;99.90;;;;;;4885058;29;20228;-87
2023/12/28 08:08:01;;;;;;;13.20;12.40;;;9.60;99.90;;;;;;4979076;28;20653;-87
2023/12/28 08:10:28;;;;;;;12.80;12.10;;;9.50;99.90;;;;;;5014646;28;20240;-88
2023/12/28 08:12:55;;;;;;;13.50;12.53;;;9.40;99.90;;;;;;4998801;28;20545;-87
2023/12/28 08:15:22;;;;;;;14.30;12.87;;;9.40;99.90;;;;;;4983582;28;20203;-88
2023/12/28 08:17:49;;;;;;;13.30;12.40;;;9.50;99.90;;;;;;4985583;28;20197;-87
2023/12/28 08:20:17;;;;;;;12.80;12.10;;;9.50;99.90;;;;;;5000778;28;20221;-87
2023/12/28 08:22:44;;;;;;;13.87;12.57;;;9.50;99.90;;;;;;5001337;28;20199;-87
2023/12/28 08:25:12;;;;;;;13.03;12.33;;;9.60;99.90;;;;;;4986895;28;20269;-86
2023/12/28 08:27:42;;;;;;;13.27;12.40;;;9.50;99.90;;;;;;4990775;28;20196;-89
2023/12/28 08:30:13;;;;;;;13.03;12.33;;;9.40;99.90;;;;;;4985499;28;20205;-90
2023/12/28 08:32:41;;;;;;;12.63;11.83;;;9.60;99.90;;;;;;4983275;28;20212;-90
2023/12/28 08:35:08;;;;;;;13.23;12.33;;;9.50;99.90;;;;;;5003121;28;20216;-88
2023/12/28 08:37:35;;;;;;;13.27;12.47;;;9.60;99.90;;;;;;5002292;28;20204;-88
2023/12/28 08:40:03;;;;;;;13.37;12.33;;;9.60;99.90;;;;;;5001976;28;20225;-88
2023/12/28 08:42:31;;;;;;;13.30;12.50;;;9.70;99.90;;;;;;4986702;28;20200;-88
2023/12/28 08:44:58;;;;;;;13.67;12.83;;;9.80;99.90;;;;;;5002398;28;20319;-87
2023/12/28 08:47:25;;;;;;;14.10;13.20;;;9.90;99.90;;;;;;5016624;28;20690;-88
2023/12/28 08:49:52;;;;;;;14.60;13.40;;;10.00;99.90;;;;;;5004289;28;20258;-88
2023/12/28 08:52:19;;;;;;;13.87;12.90;;;10.00;99.90;;;;;;5004918;28;20276;-88
2023/12/28 08:54:46;;;;;;;13.90;13.00;;;10.10;99.90;;;;;;5022143;28;20302;-91
2023/12/28 08:57:14;;;;;;;13.40;12.60;;;10.30;99.90;;;;;;5021757;28;20713;-90
2023/12/28 08:59:44;;;;;;;13.50;12.53;;;10.20;99.90;;;;;;5022728;28;20212;-90
2023/12/28 09:02:11;;;;;;;13.80;12.60;;;10.40;99.90;;;;;;5023423;28;20265;-88
2023/12/28 09:04:39;;;;;;;14.33;13.07;;;10.60;99.90;;;;;;5006540;28;20223;-89
2023/12/28 09:07:06;;;;;;;13.77;12.77;;;10.70;99.90;;;;;;5022353;28;20216;-87
2023/12/28 09:09:33;;;;;;;14.60;13.50;;;10.80;99.90;;;;;;5021551;28;20278;-88
2023/12/28 09:12:01;;;;;;;15.20;14.03;;;10.90;99.90;;;;;;5005581;28;20196;-86
2023/12/28 09:14:28;;;;;;;14.50;12.67;;;10.90;99.90;;;;;;5038194;28;20721;-88
2023/12/28 09:16:55;;;;;;;14.17;13.17;;;10.90;99.90;;;;;;5020427;28;20663;-88
2023/12/28 09:19:23;;;;;;;14.67;13.50;;;10.90;99.90;;;;;;5020537;28;20199;-88
2023/12/28 09:21:50;;;;;;;14.87;13.80;;;10.70;99.90;;;;;;5004827;28;20212;-89
2023/12/28 09:24:18;;;;;;;14.33;13.37;;;10.60;99.90;;;;;;5022893;28;20227;-87
2023/12/28 09:26:47;;;;;;;14.77;13.30;;;10.70;99.90;;;;;;5024447;28;20196;-88
2023/12/28 09:29:14;;;;;;;14.33;13.47;;;10.60;99.90;;;;;;5023489;28;20199;-90
2023/12/28 09:31:41;;;;;;;15.30;14.20;;;10.60;99.90;;;;;;5006582;28;20203;-87
2023/12/28 09:34:09;;;;;;;15.53;14.30;;;10.50;99.90;;;;;;5020310;28;20200;-88
2023/12/28 09:36:36;;;;;;;14.93;13.80;;;10.50;99.90;;;;;;5020003;28;20189;-88
2023/12/28 09:39:03;;;;;;;14.97;13.77;;;10.50;99.90;;;;;;5019998;28;20618;-89
2023/12/28 09:41:36;;;;;;;15.70;14.33;;;10.60;99.90;;;;;;5020067;28;20221;-88
2023/12/28 09:44:14;;;;;;;15.03;13.93;;;10.60;99.90;;;;;;5003707;28;20678;-89
2023/12/28 09:46:42;;;;;;;14.20;13.20;;;10.60;99.90;;;;;;5020000;28;20200;-88
2023/12/28 09:49:11;;;;;;;14.27;12.90;;;10.60;99.90;;;;;;5020419;28;20196;-88
2023/12/28 09:51:38;;;;;;;14.57;13.40;;;10.60;99.90;;;;;;5019569;28;20223;-89
2023/12/28 09:54:06;;;;;;;14.33;13.23;;;10.60;99.90;;;;;;5003336;28;20698;-89
2023/12/28 09:56:34;;;;;;;14.10;13.10;;;10.60;99.90;;;;;;5002842;28;20235;-89
2023/12/28 09:59:04;;;;;;;13.87;12.97;;;10.60;99.90;;;;;;5018631;28;20200;-87
2023/12/28 10:01:32;;;;;;;14.93;13.70;;;10.70;99.90;;;;;;5018456;28;20338;-88
2023/12/28 10:03:59;;;;;;;14.27;13.27;;;10.70;99.90;;;;;;5019512;28;20196;-86
2023/12/28 10:06:26;;;;;;;14.77;13.40;;;10.70;99.90;;;;;;5002902;28;20223;-87
2023/12/28 10:08:55;;;;;;;14.27;13.10;;;10.80;99.90;;;;;;5012124;28;20762;-91
2023/12/28 10:11:23;;;;;;;14.60;13.33;;;11.10;99.90;;;;;;5016948;28;20200;-85
2023/12/28 10:13:50;;;;;;;14.40;13.30;;;11.10;99.90;;;;;;4999363;28;20212;-87
2023/12/28 10:16:17;;;;;;;14.30;13.30;;;11.30;99.90;;;;;;4999303;28;20240;-89
2023/12/28 10:18:45;;;;;;;14.67;13.77;;;11.20;99.90;;;;;;4983205;28;20604;-88
2023/12/28 10:21:12;;;;;;;14.00;13.00;;;11.10;99.90;;;;;;5000267;28;20365;-88
2023/12/28 10:23:40;;;;;;;14.33;13.43;;;11.10;99.90;;;;;;5000400;28;20251;-88
2023/12/28 10:26:08;;;;;;;14.70;13.60;;;11.10;99.90;;;;;;4985098;28;20223;-87
2023/12/28 10:28:39;;;;;;;14.90;13.80;;;11.00;99.90;;;;;;5000665;28;20407;-87
2023/12/28 10:31:08;;;;;;;20.50;18.33;;;11.00;99.90;;;;;;5000245;28;20212;-88
2023/12/28 10:33:36;;;;;;;15.20;13.80;;;11.20;99.90;;;;;;4981113;28;20202;-88
2023/12/28 10:36:07;;;;;;;15.03;13.83;;;11.20;99.90;;;;;;4964908;28;20573;-89
2023/12/28 10:38:38;;;;;;;13.50;12.60;;;11.10;99.90;;;;;;4963757;28;20205;-88
2023/12/28 10:41:09;;;;;;;15.70;14.40;;;11.10;99.90;;;;;;4979003;28;20304;-88
2023/12/28 10:44:04;;;;;;;14.40;13.40;;;11.10;99.90;;;;;;4979158;28;20202;-88
2023/12/28 10:46:43;;;;;;;17.63;15.80;;;11.10;99.90;;;;;;4964977;28;20200;-87
2023/12/28 10:49:16;;;;;;;14.30;13.27;;;11.10;99.90;;;;;;4979476;28;20259;-89
2023/12/28 10:51:46;;;;;;;14.73;13.60;;;11.00;99.90;;;;;;4963338;28;20220;-89
2023/12/28 10:54:31;;;;;;;14.33;13.13;;;11.10;99.90;;;;;;4979318;28;20260;-88
2023/12/28 10:57:01;;;;;;;13.83;12.87;;;11.00;99.90;;;;;;4979082;28;20663;-87
2023/12/28 10:59:43;;;;;;;14.93;13.53;;;11.10;99.90;;;;;;4963428;28;20200;-88
2023/12/28 11:02:14;;;;;;;14.93;13.93;;;11.10;99.90;;;;;;4963586;28;20217;-86
2023/12/28 11:04:46;;;;;;;16.03;14.67;;;11.10;99.90;;;;;;4987119;28;20203;-88
2023/12/28 11:07:17;;;;;;;15.40;14.20;;;11.10;99.90;;;;;;5018359;28;20222;-88
2023/12/28 11:09:45;;;;;;;15.27;13.77;;;11.10;99.90;;;;;;5031925;28;20235;-86
2023/12/28 11:12:18;;;;;;;15.17;13.97;;;11.20;99.90;;;;;;5021852;28;20261;-87
2023/12/28 11:14:48;;;;;;;14.90;13.83;;;11.20;99.90;;;;;;5012969;28;20204;-88
2023/12/28 11:17:17;;;;;;;14.70;13.50;;;11.30;99.90;;;;;;5002458;28;20679;-86
2023/12/28 11:19:45;;;;;;;14.90;13.57;;;11.40;99.90;;;;;;5001882;28;20671;-87
2023/12/28 11:22:15;;;;;;;14.37;13.07;;;11.50;99.90;;;;;;5002070;28;20231;-88
2023/12/28 11:24:42;;;;;;;18.17;13.43;;;11.50;99.90;;;;;;4999040;28;20609;-88
2023/12/28 11:27:10;;;;;;;15.07;13.87;;;11.60;99.90;;;;;;5015588;28;20572;-89
2023/12/28 11:29:37;;;;;;;16.20;14.20;;;11.60;99.90;;;;;;4999200;28;20216;-87
2023/12/28 11:32:05;;;;;;;15.10;13.90;;;11.80;99.90;;;;;;4999429;28;20530;-88
2023/12/28 11:34:36;;;;;;;14.20;13.20;;;11.80;99.90;;;;;;4999250;28;20208;-87
2023/12/28 11:37:07;;;;;;;14.40;13.20;;;11.80;99.90;;;;;;5018651;28;20234;-87
2023/12/28 11:39:36;;;;;;;16.27;14.60;;;11.70;99.90;;;;;;5018592;28;20660;-89
2023/12/28 11:42:08;;;;;;;15.07;13.50;;;11.80;99.90;;;;;;5018638;28;20223;-87
2023/12/28 11:44:46;;;;;;;15.53;14.40;;;11.80;99.90;;;;;;5018998;28;20223;-86
2023/12/28 11:47:16;;;;;;;14.50;13.57;;;11.70;99.90;;;;;;5032868;28;20195;-85
2023/12/28 11:49:48;;;;;;;14.40;13.40;;;11.80;99.90;;;;;;5018613;28;20259;-87
2023/12/28 11:52:49;;;;;;;15.80;14.53;;;11.70;99.90;;;;;;5018145;28;20655;-86
2023/12/28 11:55:23;;;;;;;15.33;13.97;;;11.80;99.90;;;;;;5001728;28;20310;-88
2023/12/28 11:57:50;;;;;;;14.43;13.50;;;11.90;99.90;;;;;;5018172;28;20290;-88
2023/12/28 12:00:20;;;;;;;16.02;14.18;;;11.90;99.90;;;;;;5002126;28;20200;-87
2023/12/28 12:02:47;;;;;;;15.10;14.00;;;12.10;99.90;;;;;;5017726;28;20196;-85
2023/12/28 12:05:15;;;;;;;14.43;13.25;;;12.00;99.90;;;;;;5001621;28;20674;-87
2023/12/28 12:07:42;;;;;;;15.18;13.77;;;12.00;99.90;;;;;;5001606;28;20220;-84
2023/12/28 12:10:15;;;;;;;15.30;14.20;;;12.20;99.90;;;;;;4984380;28;20236;-87
2023/12/28 12:12:42;;;;;;;15.00;13.90;;;12.10;99.90;;;;;;4985095;28;20220;-87
2023/12/28 12:15:12;;;;;;;14.77;13.80;;;12.20;99.90;;;;;;5001862;28;20247;-86
2023/12/28 12:17:42;;;;;;;15.20;14.10;;;12.10;99.90;;;;;;5001531;28;20205;-86
2023/12/28 12:20:09;;;;;;;15.07;13.80;;;12.30;99.90;;;;;;4985259;28;20287;-88
2023/12/28 12:22:37;;;;;;;14.60;13.50;;;12.30;99.90;;;;;;4985413;28;20221;-87
2023/12/28 12:25:06;;;;;;;15.23;13.80;;;12.20;99.90;;;;;;5001080;28;20232;-86
2023/12/28 12:27:33;;;;;;;14.88;13.80;;;12.30;99.90;;;;;;4998463;28;20293;-87
2023/12/28 12:30:01;;;;;;;14.70;13.70;;;12.40;99.90;;;;;;4998744;28;20209;-89
2023/12/28 12:32:28;;;;;;;15.03;14.03;;;12.20;99.90;;;;;;4998132;28;20202;-88
2023/12/28 12:34:56;;;;;;;14.50;13.60;;;12.20;99.90;;;;;;4981689;28;20559;-87
2023/12/28 12:37:26;;;;;;;14.88;13.57;;;12.20;99.90;;;;;;4981391;28;20206;-84
2023/12/28 12:39:54;;;;;;;14.65;13.65;;;12.30;99.90;;;;;;4981316;28;20206;-87
2023/12/28 12:42:21;;;;;;;15.70;14.17;;;12.20;99.90;;;;;;5001099;28;20221;-83
2023/12/28 12:44:48;;;;;;;15.10;14.00;;;12.10;99.90;;;;;;5001242;28;20671;-85
2023/12/28 12:47:15;;;;;;;15.17;14.17;;;12.10;99.90;;;;;;5018709;28;20656;-88
2023/12/28 12:49:44;;;;;;;15.55;14.00;;;12.10;99.90;;;;;;4985259;28;20205;-87
2023/12/28 12:52:12;;;;;;;15.48;14.38;;;12.10;99.90;;;;;;5000949;28;20203;-84
2023/12/28 12:54:40;;;;;;;15.57;14.20;;;12.10;99.90;;;;;;4984635;28;20204;-84
2023/12/28 12:57:07;;;;;;;15.23;14.07;;;12.20;99.90;;;;;;4982159;28;20301;-85
2023/12/28 12:59:34;;;;;;;15.37;14.00;;;12.10;99.90;;;;;;5000449;28;20244;-88
2023/12/28 13:02:01;;;;;;;15.27;14.30;;;12.10;99.90;;;;;;5000192;28;20672;-88
2023/12/28 13:04:28;;;;;;;15.20;14.00;;;12.20;99.90;;;;;;5000590;28;20678;-88
2023/12/28 13:06:55;;;;;;;15.83;14.40;;;12.30;99.90;;;;;;4983181;28;20216;-87
2023/12/28 13:09:25;;;;;;;15.80;14.60;;;12.20;99.90;;;;;;5006424;28;20232;-86
2023/12/28 13:11:53;;;;;;;15.50;14.30;;;12.30;99.90;;;;;;5036492;28;20204;-88
2023/12/28 13:14:20;;;;;;;16.05;14.70;;;12.40;99.90;;;;;;5020689;28;20258;-88
2023/12/28 13:16:52;;;;;;;16.55;15.23;;;12.30;99.90;;;;;;5019908;28;20651;-88